sensor_id;sensor_type;location;lat;lon;timestamp;P1;durP1;ratioP1;P2;durP2;ratioP2
16460;SDS011;8341;42.048;24.650;2023-06-26T00:00:07;9.88;;;7.80;;
16460;SDS011;8341;42.048;24.650;2023-06-26T00:02:36;13.60;;;8.43;;
16460;SDS011;8341;42.048;24.650;2023-06-26T00:05:03;9.27;;;7.93;;
16460;SDS011;8341;42.048;24.650;2023-06-26T00:07:30;11.07;;;8.23;;
16460;SDS011;8341;42.048;24.650;2023-06-26T00:10:00;13.07;;;8.57;;
16460;SDS011;8341;42.048;24.650;2023-06-26T00:12:27;10.55;;;8.30;;
16460;SDS011;8341;42.048;24.650;2023-06-26T00:14:54;10.75;;;8.40;;
16460;SDS011;8341;42.048;24.650;2023-06-26T00:17:21;11.05;;;8.43;;
16460;SDS011;8341;42.048;24.650;2023-06-26T00:19:49;12.73;;;8.68;;
16460;SDS011;8341;42.048;24.650;2023-06-26T00:22:16;12.60;;;8.65;;
16460;SDS011;8341;42.048;24.650;2023-06-26T00:24:44;13.10;;;8.55;;
16460;SDS011;8341;42.048;24.650;2023-06-26T00:27:12;10.32;;;8.25;;
16460;SDS011;8341;42.048;24.650;2023-06-26T00:29:39;13.48;;;8.07;;
16460;SDS011;8341;42.048;24.650;2023-06-26T00:32:06;11.13;;;8.25;;
16460;SDS011;8341;42.048;24.650;2023-06-26T00:34:33;10.20;;;8.50;;
16460;SDS011;8341;42.048;24.650;2023-06-26T00:37:00;12.35;;;8.35;;
16460;SDS011;8341;42.048;24.650;2023-06-26T00:39:26;10.98;;;8.45;;
16460;SDS011;8341;42.048;24.650;2023-06-26T00:41:53;10.32;;;8.27;;
16460;SDS011;8341;42.048;24.650;2023-06-26T00:44:21;12.43;;;9.23;;
16460;SDS011;8341;42.048;24.650;2023-06-26T00:46:48;12.57;;;8.68;;
16460;SDS011;8341;42.048;24.650;2023-06-26T00:49:16;11.73;;;9.05;;
16460;SDS011;8341;42.048;24.650;2023-06-26T00:51:43;10.77;;;8.60;;
16460;SDS011;8341;42.048;24.650;2023-06-26T00:54:10;11.68;;;8.48;;
16460;SDS011;8341;42.048;24.650;2023-06-26T00:56:37;10.35;;;8.50;;
16460;SDS011;8341;42.048;24.650;2023-06-26T00:59:04;12.65;;;8.80;;
16460;SDS011;8341;42.048;24.650;2023-06-26T01:01:32;12.80;;;9.30;;
16460;SDS011;8341;42.048;24.650;2023-06-26T01:03:59;12.07;;;8.95;;
16460;SDS011;8341;42.048;24.650;2023-06-26T01:06:26;12.18;;;9.38;;
16460;SDS011;8341;42.048;24.650;2023-06-26T01:08:57;12.77;;;8.98;;
16460;SDS011;8341;42.048;24.650;2023-06-26T01:11:24;12.70;;;8.95;;
16460;SDS011;8341;42.048;24.650;2023-06-26T01:13:51;10.45;;;9.10;;
16460;SDS011;8341;42.048;24.650;2023-06-26T01:16:19;13.20;;;8.98;;
16460;SDS011;8341;42.048;24.650;2023-06-26T01:18:47;11.35;;;8.57;;
16460;SDS011;8341;42.048;24.650;2023-06-26T01:21:15;12.43;;;9.02;;
16460;SDS011;8341;42.048;24.650;2023-06-26T01:23:47;11.38;;;8.50;;
16460;SDS011;8341;42.048;24.650;2023-06-26T01:26:26;11.73;;;8.68;;
16460;SDS011;8341;42.048;24.650;2023-06-26T01:28:55;14.43;;;9.48;;
16460;SDS011;8341;42.048;24.650;2023-06-26T01:31:24;12.93;;;8.75;;
16460;SDS011;8341;42.048;24.650;2023-06-26T01:33:53;10.25;;;8.85;;
16460;SDS011;8341;42.048;24.650;2023-06-26T01:36:21;13.93;;;9.25;;
16460;SDS011;8341;42.048;24.650;2023-06-26T01:38:48;12.65;;;9.30;;
16460;SDS011;8341;42.048;24.650;2023-06-26T01:41:16;13.40;;;9.60;;
16460;SDS011;8341;42.048;24.650;2023-06-26T01:43:50;11.85;;;8.73;;
16460;SDS011;8341;42.048;24.650;2023-06-26T01:46:30;11.10;;;9.27;;
16460;SDS011;8341;42.048;24.650;2023-06-26T01:49:06;12.15;;;9.43;;
16460;SDS011;8341;42.048;24.650;2023-06-26T01:51:38;11.60;;;8.80;;
16460;SDS011;8341;42.048;24.650;2023-06-26T01:54:08;14.13;;;9.25;;
16460;SDS011;8341;42.048;24.650;2023-06-26T01:56:38;13.93;;;9.80;;
16460;SDS011;8341;42.048;24.650;2023-06-26T01:59:08;11.70;;;9.40;;
16460;SDS011;8341;42.048;24.650;2023-06-26T02:01:36;13.18;;;9.20;;
16460;SDS011;8341;42.048;24.650;2023-06-26T02:04:03;12.95;;;9.40;;
16460;SDS011;8341;42.048;24.650;2023-06-26T02:06:29;13.95;;;9.30;;
16460;SDS011;8341;42.048;24.650;2023-06-26T02:08:56;14.60;;;9.88;;
16460;SDS011;8341;42.048;24.650;2023-06-26T02:11:23;14.45;;;11.05;;
16460;SDS011;8341;42.048;24.650;2023-06-26T02:13:50;12.25;;;9.70;;
16460;SDS011;8341;42.048;24.650;2023-06-26T02:16:18;13.63;;;9.95;;
16460;SDS011;8341;42.048;24.650;2023-06-26T02:18:45;12.90;;;9.25;;
16460;SDS011;8341;42.048;24.650;2023-06-26T02:21:12;13.27;;;9.65;;
16460;SDS011;8341;42.048;24.650;2023-06-26T02:23:39;13.77;;;11.43;;
16460;SDS011;8341;42.048;24.650;2023-06-26T02:26:06;13.85;;;9.93;;
16460;SDS011;8341;42.048;24.650;2023-06-26T02:28:33;12.73;;;9.60;;
16460;SDS011;8341;42.048;24.650;2023-06-26T02:31:00;14.90;;;9.63;;
16460;SDS011;8341;42.048;24.650;2023-06-26T02:33:28;11.40;;;9.02;;
16460;SDS011;8341;42.048;24.650;2023-06-26T02:35:55;14.68;;;10.38;;
16460;SDS011;8341;42.048;24.650;2023-06-26T02:38:22;14.32;;;10.10;;
16460;SDS011;8341;42.048;24.650;2023-06-26T02:40:49;14.05;;;9.57;;
16460;SDS011;8341;42.048;24.650;2023-06-26T02:43:15;13.18;;;9.57;;
16460;SDS011;8341;42.048;24.650;2023-06-26T02:45:42;15.05;;;9.93;;
16460;SDS011;8341;42.048;24.650;2023-06-26T02:48:09;13.52;;;9.73;;
16460;SDS011;8341;42.048;24.650;2023-06-26T02:50:37;11.15;;;9.20;;
16460;SDS011;8341;42.048;24.650;2023-06-26T02:53:04;12.98;;;9.73;;
16460;SDS011;8341;42.048;24.650;2023-06-26T02:55:31;13.52;;;10.07;;
16460;SDS011;8341;42.048;24.650;2023-06-26T02:57:58;14.05;;;9.63;;
16460;SDS011;8341;42.048;24.650;2023-06-26T03:00:25;13.98;;;10.38;;
16460;SDS011;8341;42.048;24.650;2023-06-26T03:02:51;12.77;;;9.65;;
16460;SDS011;8341;42.048;24.650;2023-06-26T03:05:18;13.93;;;10.02;;
16460;SDS011;8341;42.048;24.650;2023-06-26T03:07:46;12.10;;;10.15;;
16460;SDS011;8341;42.048;24.650;2023-06-26T03:10:13;13.18;;;9.55;;
16460;SDS011;8341;42.048;24.650;2023-06-26T03:12:40;15.23;;;9.57;;
16460;SDS011;8341;42.048;24.650;2023-06-26T03:15:07;12.98;;;10.00;;
16460;SDS011;8341;42.048;24.650;2023-06-26T03:17:36;14.60;;;9.85;;
16460;SDS011;8341;42.048;24.650;2023-06-26T03:20:03;15.43;;;10.00;;
16460;SDS011;8341;42.048;24.650;2023-06-26T03:22:32;13.18;;;9.98;;
16460;SDS011;8341;42.048;24.650;2023-06-26T03:25:01;12.32;;;9.35;;
16460;SDS011;8341;42.048;24.650;2023-06-26T03:27:28;14.63;;;10.05;;
16460;SDS011;8341;42.048;24.650;2023-06-26T03:29:55;15.30;;;10.18;;
16460;SDS011;8341;42.048;24.650;2023-06-26T03:32:21;12.82;;;9.48;;
16460;SDS011;8341;42.048;24.650;2023-06-26T03:34:48;16.70;;;10.35;;
16460;SDS011;8341;42.048;24.650;2023-06-26T03:37:15;13.88;;;10.27;;
16460;SDS011;8341;42.048;24.650;2023-06-26T03:39:42;12.98;;;10.20;;
16460;SDS011;8341;42.048;24.650;2023-06-26T03:42:10;15.02;;;10.88;;
16460;SDS011;8341;42.048;24.650;2023-06-26T03:44:36;15.57;;;11.25;;
16460;SDS011;8341;42.048;24.650;2023-06-26T03:47:03;17.02;;;10.82;;
16460;SDS011;8341;42.048;24.650;2023-06-26T03:49:31;13.48;;;10.77;;
16460;SDS011;8341;42.048;24.650;2023-06-26T03:51:57;16.10;;;11.20;;
16460;SDS011;8341;42.048;24.650;2023-06-26T03:54:24;16.05;;;11.15;;
16460;SDS011;8341;42.048;24.650;2023-06-26T03:56:51;14.38;;;11.57;;
16460;SDS011;8341;42.048;24.650;2023-06-26T03:59:19;13.93;;;11.20;;
16460;SDS011;8341;42.048;24.650;2023-06-26T04:01:46;16.83;;;11.75;;
16460;SDS011;8341;42.048;24.650;2023-06-26T04:04:13;15.20;;;11.18;;
16460;SDS011;8341;42.048;24.650;2023-06-26T04:06:39;17.30;;;11.55;;
16460;SDS011;8341;42.048;24.650;2023-06-26T04:09:06;17.85;;;12.07;;
16460;SDS011;8341;42.048;24.650;2023-06-26T04:11:33;15.88;;;11.35;;
16460;SDS011;8341;42.048;24.650;2023-06-26T04:14:00;14.27;;;11.57;;
16460;SDS011;8341;42.048;24.650;2023-06-26T04:16:29;16.70;;;12.50;;
16460;SDS011;8341;42.048;24.650;2023-06-26T04:18:56;16.27;;;11.23;;
16460;SDS011;8341;42.048;24.650;2023-06-26T04:21:23;14.95;;;11.57;;
16460;SDS011;8341;42.048;24.650;2023-06-26T04:23:50;15.70;;;12.05;;
16460;SDS011;8341;42.048;24.650;2023-06-26T04:26:17;17.65;;;11.85;;
16460;SDS011;8341;42.048;24.650;2023-06-26T04:28:44;14.82;;;12.32;;
16460;SDS011;8341;42.048;24.650;2023-06-26T04:31:11;17.25;;;12.32;;
16460;SDS011;8341;42.048;24.650;2023-06-26T04:33:39;15.45;;;12.07;;
16460;SDS011;8341;42.048;24.650;2023-06-26T04:36:06;14.45;;;11.75;;
16460;SDS011;8341;42.048;24.650;2023-06-26T04:38:33;13.68;;;11.30;;
16460;SDS011;8341;42.048;24.650;2023-06-26T04:41:00;17.85;;;11.40;;
16460;SDS011;8341;42.048;24.650;2023-06-26T04:43:27;15.60;;;11.35;;
16460;SDS011;8341;42.048;24.650;2023-06-26T04:45:54;13.45;;;11.07;;
16460;SDS011;8341;42.048;24.650;2023-06-26T04:48:21;13.75;;;11.18;;
16460;SDS011;8341;42.048;24.650;2023-06-26T04:50:49;14.63;;;10.85;;
16460;SDS011;8341;42.048;24.650;2023-06-26T04:53:19;16.65;;;10.73;;
16460;SDS011;8341;42.048;24.650;2023-06-26T04:55:46;11.90;;;10.52;;
16460;SDS011;8341;42.048;24.650;2023-06-26T04:58:13;12.13;;;10.77;;
16460;SDS011;8341;42.048;24.650;2023-06-26T05:00:40;12.40;;;10.98;;
16460;SDS011;8341;42.048;24.650;2023-06-26T05:03:08;14.02;;;10.90;;
16460;SDS011;8341;42.048;24.650;2023-06-26T05:05:35;14.75;;;10.95;;
16460;SDS011;8341;42.048;24.650;2023-06-26T05:08:14;11.93;;;10.57;;
16460;SDS011;8341;42.048;24.650;2023-06-26T05:10:41;12.57;;;10.65;;
16460;SDS011;8341;42.048;24.650;2023-06-26T05:13:08;13.65;;;10.48;;
16460;SDS011;8341;42.048;24.650;2023-06-26T05:15:35;14.82;;;10.60;;
16460;SDS011;8341;42.048;24.650;2023-06-26T05:18:02;11.50;;;10.20;;
16460;SDS011;8341;42.048;24.650;2023-06-26T05:20:30;15.00;;;10.88;;
16460;SDS011;8341;42.048;24.650;2023-06-26T05:22:57;11.90;;;9.88;;
16460;SDS011;8341;42.048;24.650;2023-06-26T05:25:26;13.25;;;10.13;;
16460;SDS011;8341;42.048;24.650;2023-06-26T05:27:54;11.70;;;10.10;;
16460;SDS011;8341;42.048;24.650;2023-06-26T05:30:22;13.63;;;9.98;;
16460;SDS011;8341;42.048;24.650;2023-06-26T05:32:50;12.77;;;10.43;;
16460;SDS011;8341;42.048;24.650;2023-06-26T05:35:18;11.48;;;9.98;;
16460;SDS011;8341;42.048;24.650;2023-06-26T05:37:47;13.10;;;10.65;;
16460;SDS011;8341;42.048;24.650;2023-06-26T05:40:17;13.65;;;10.55;;
16460;SDS011;8341;42.048;24.650;2023-06-26T05:42:46;14.10;;;10.93;;
16460;SDS011;8341;42.048;24.650;2023-06-26T05:45:13;12.23;;;10.80;;
16460;SDS011;8341;42.048;24.650;2023-06-26T05:47:40;12.02;;;10.68;;
16460;SDS011;8341;42.048;24.650;2023-06-26T05:50:08;13.48;;;10.60;;
16460;SDS011;8341;42.048;24.650;2023-06-26T05:52:36;11.18;;;9.80;;
16460;SDS011;8341;42.048;24.650;2023-06-26T05:55:04;12.15;;;10.43;;
16460;SDS011;8341;42.048;24.650;2023-06-26T05:57:32;11.75;;;10.13;;
16460;SDS011;8341;42.048;24.650;2023-06-26T06:00:02;14.40;;;10.65;;
16460;SDS011;8341;42.048;24.650;2023-06-26T06:02:35;10.73;;;9.57;;
16460;SDS011;8341;42.048;24.650;2023-06-26T06:05:02;10.50;;;9.45;;
16460;SDS011;8341;42.048;24.650;2023-06-26T06:07:30;12.45;;;9.00;;
16460;SDS011;8341;42.048;24.650;2023-06-26T06:09:57;11.88;;;9.40;;
16460;SDS011;8341;42.048;24.650;2023-06-26T06:12:24;10.23;;;8.70;;
16460;SDS011;8341;42.048;24.650;2023-06-26T06:14:51;12.10;;;9.48;;
16460;SDS011;8341;42.048;24.650;2023-06-26T06:17:19;12.18;;;9.63;;
16460;SDS011;8341;42.048;24.650;2023-06-26T06:19:46;12.15;;;9.05;;
16460;SDS011;8341;42.048;24.650;2023-06-26T06:22:13;11.35;;;8.52;;
16460;SDS011;8341;42.048;24.650;2023-06-26T06:24:39;11.20;;;8.82;;
16460;SDS011;8341;42.048;24.650;2023-06-26T06:27:06;13.85;;;9.27;;
16460;SDS011;8341;42.048;24.650;2023-06-26T06:29:33;12.45;;;9.25;;
16460;SDS011;8341;42.048;24.650;2023-06-26T06:32:00;11.20;;;8.60;;
16460;SDS011;8341;42.048;24.650;2023-06-26T06:34:28;17.90;;;9.07;;
16460;SDS011;8341;42.048;24.650;2023-06-26T06:36:55;9.95;;;8.68;;
16460;SDS011;8341;42.048;24.650;2023-06-26T06:39:21;10.70;;;8.90;;
16460;SDS011;8341;42.048;24.650;2023-06-26T06:41:48;9.30;;;8.10;;
16460;SDS011;8341;42.048;24.650;2023-06-26T06:44:15;9.38;;;8.43;;
16460;SDS011;8341;42.048;24.650;2023-06-26T06:46:42;9.65;;;8.70;;
16460;SDS011;8341;42.048;24.650;2023-06-26T06:49:09;11.45;;;9.30;;
16460;SDS011;8341;42.048;24.650;2023-06-26T06:51:37;10.55;;;9.15;;
16460;SDS011;8341;42.048;24.650;2023-06-26T06:54:03;11.35;;;8.32;;
16460;SDS011;8341;42.048;24.650;2023-06-26T06:56:30;9.90;;;7.95;;
16460;SDS011;8341;42.048;24.650;2023-06-26T06:58:57;10.85;;;8.55;;
16460;SDS011;8341;42.048;24.650;2023-06-26T07:01:24;9.07;;;8.18;;
16460;SDS011;8341;42.048;24.650;2023-06-26T07:03:51;9.27;;;8.32;;
16460;SDS011;8341;42.048;24.650;2023-06-26T07:06:17;9.05;;;7.95;;
16460;SDS011;8341;42.048;24.650;2023-06-26T07:08:45;9.43;;;8.20;;
16460;SDS011;8341;42.048;24.650;2023-06-26T07:11:12;11.25;;;8.02;;
16460;SDS011;8341;42.048;24.650;2023-06-26T07:13:39;11.13;;;8.88;;
16460;SDS011;8341;42.048;24.650;2023-06-26T07:16:06;11.93;;;8.90;;
16460;SDS011;8341;42.048;24.650;2023-06-26T07:18:35;9.40;;;8.40;;
16460;SDS011;8341;42.048;24.650;2023-06-26T07:21:03;9.95;;;7.82;;
16460;SDS011;8341;42.048;24.650;2023-06-26T07:23:30;10.75;;;8.70;;
16460;SDS011;8341;42.048;24.650;2023-06-26T07:25:58;9.95;;;8.63;;
16460;SDS011;8341;42.048;24.650;2023-06-26T07:28:25;12.55;;;8.45;;
16460;SDS011;8341;42.048;24.650;2023-06-26T07:30:52;10.00;;;8.00;;
16460;SDS011;8341;42.048;24.650;2023-06-26T07:33:19;9.23;;;8.32;;
16460;SDS011;8341;42.048;24.650;2023-06-26T07:35:46;9.25;;;8.35;;
16460;SDS011;8341;42.048;24.650;2023-06-26T07:38:13;8.57;;;7.78;;
16460;SDS011;8341;42.048;24.650;2023-06-26T07:40:40;17.77;;;8.60;;
16460;SDS011;8341;42.048;24.650;2023-06-26T07:43:08;10.48;;;8.48;;
16460;SDS011;8341;42.048;24.650;2023-06-26T07:45:34;11.38;;;8.93;;
16460;SDS011;8341;42.048;24.650;2023-06-26T07:48:01;8.90;;;8.00;;
16460;SDS011;8341;42.048;24.650;2023-06-26T07:50:28;11.30;;;8.30;;
16460;SDS011;8341;42.048;24.650;2023-06-26T07:52:55;10.63;;;8.20;;
16460;SDS011;8341;42.048;24.650;2023-06-26T07:55:22;11.10;;;8.18;;
16460;SDS011;8341;42.048;24.650;2023-06-26T07:57:49;10.82;;;7.93;;
16460;SDS011;8341;42.048;24.650;2023-06-26T08:00:18;9.75;;;7.60;;
16460;SDS011;8341;42.048;24.650;2023-06-26T08:02:45;9.02;;;7.63;;
16460;SDS011;8341;42.048;24.650;2023-06-26T08:05:12;8.73;;;7.60;;
16460;SDS011;8341;42.048;24.650;2023-06-26T08:07:39;8.43;;;7.57;;
16460;SDS011;8341;42.048;24.650;2023-06-26T08:10:06;10.77;;;7.57;;
16460;SDS011;8341;42.048;24.650;2023-06-26T08:12:33;8.95;;;7.63;;
16460;SDS011;8341;42.048;24.650;2023-06-26T08:15:02;9.35;;;7.55;;
16460;SDS011;8341;42.048;24.650;2023-06-26T08:17:31;10.38;;;7.88;;
16460;SDS011;8341;42.048;24.650;2023-06-26T08:19:58;8.18;;;7.38;;
16460;SDS011;8341;42.048;24.650;2023-06-26T08:22:25;8.50;;;7.70;;
16460;SDS011;8341;42.048;24.650;2023-06-26T08:24:51;9.63;;;8.15;;
16460;SDS011;8341;42.048;24.650;2023-06-26T08:27:18;8.38;;;7.53;;
16460;SDS011;8341;42.048;24.650;2023-06-26T08:29:45;8.07;;;7.20;;
16460;SDS011;8341;42.048;24.650;2023-06-26T08:32:12;10.15;;;7.75;;
16460;SDS011;8341;42.048;24.650;2023-06-26T08:34:40;8.07;;;7.28;;
16460;SDS011;8341;42.048;24.650;2023-06-26T08:37:06;8.27;;;7.03;;
16460;SDS011;8341;42.048;24.650;2023-06-26T08:39:34;8.75;;;7.40;;
16460;SDS011;8341;42.048;24.650;2023-06-26T08:42:01;7.95;;;6.68;;
16460;SDS011;8341;42.048;24.650;2023-06-26T08:44:28;7.72;;;7.03;;
16460;SDS011;8341;42.048;24.650;2023-06-26T08:46:55;7.47;;;6.55;;
16460;SDS011;8341;42.048;24.650;2023-06-26T08:49:24;9.40;;;6.60;;
16460;SDS011;8341;42.048;24.650;2023-06-26T08:52:02;6.95;;;6.25;;
16460;SDS011;8341;42.048;24.650;2023-06-26T08:54:33;7.18;;;6.07;;
16460;SDS011;8341;42.048;24.650;2023-06-26T08:57:03;7.38;;;6.10;;
16460;SDS011;8341;42.048;24.650;2023-06-26T08:59:32;6.93;;;6.10;;
16460;SDS011;8341;42.048;24.650;2023-06-26T09:01:59;6.25;;;5.65;;
16460;SDS011;8341;42.048;24.650;2023-06-26T09:04:27;6.15;;;5.55;;
16460;SDS011;8341;42.048;24.650;2023-06-26T09:06:54;9.05;;;5.63;;
16460;SDS011;8341;42.048;24.650;2023-06-26T09:09:23;5.93;;;5.32;;
16460;SDS011;8341;42.048;24.650;2023-06-26T09:11:50;6.95;;;5.72;;
16460;SDS011;8341;42.048;24.650;2023-06-26T09:14:17;7.40;;;5.88;;
16460;SDS011;8341;42.048;24.650;2023-06-26T09:16:45;7.18;;;5.90;;
16460;SDS011;8341;42.048;24.650;2023-06-26T09:19:12;6.70;;;5.75;;
16460;SDS011;8341;42.048;24.650;2023-06-26T09:21:39;6.95;;;6.05;;
16460;SDS011;8341;42.048;24.650;2023-06-26T09:24:07;6.25;;;5.65;;
16460;SDS011;8341;42.048;24.650;2023-06-26T09:26:36;6.10;;;5.50;;
16460;SDS011;8341;42.048;24.650;2023-06-26T09:29:04;7.85;;;5.70;;
16460;SDS011;8341;42.048;24.650;2023-06-26T09:31:32;6.88;;;5.72;;
16460;SDS011;8341;42.048;24.650;2023-06-26T09:34:01;7.85;;;5.90;;
16460;SDS011;8341;42.048;24.650;2023-06-26T09:36:29;6.93;;;5.70;;
16460;SDS011;8341;42.048;24.650;2023-06-26T09:38:58;6.25;;;5.65;;
16460;SDS011;8341;42.048;24.650;2023-06-26T09:41:25;7.65;;;5.88;;
16460;SDS011;8341;42.048;24.650;2023-06-26T09:43:54;6.47;;;5.88;;
16460;SDS011;8341;42.048;24.650;2023-06-26T09:46:26;7.63;;;5.80;;
16460;SDS011;8341;42.048;24.650;2023-06-26T09:48:57;6.80;;;6.07;;
16460;SDS011;8341;42.048;24.650;2023-06-26T09:51:25;9.52;;;6.00;;
16460;SDS011;8341;42.048;24.650;2023-06-26T09:53:52;6.20;;;5.60;;
16460;SDS011;8341;42.048;24.650;2023-06-26T09:56:19;9.18;;;6.25;;
16460;SDS011;8341;42.048;24.650;2023-06-26T09:58:47;8.48;;;6.03;;
16460;SDS011;8341;42.048;24.650;2023-06-26T10:01:15;8.32;;;5.85;;
16460;SDS011;8341;42.048;24.650;2023-06-26T10:03:43;7.43;;;6.10;;
16460;SDS011;8341;42.048;24.650;2023-06-26T10:06:10;6.55;;;5.70;;
16460;SDS011;8341;42.048;24.650;2023-06-26T10:08:38;6.78;;;6.07;;
16460;SDS011;8341;42.048;24.650;2023-06-26T10:11:06;6.97;;;6.13;;
16460;SDS011;8341;42.048;24.650;2023-06-26T10:13:38;8.07;;;6.05;;
16460;SDS011;8341;42.048;24.650;2023-06-26T10:16:10;6.57;;;5.97;;
16460;SDS011;8341;42.048;24.650;2023-06-26T10:18:39;6.57;;;5.97;;
16460;SDS011;8341;42.048;24.650;2023-06-26T10:21:07;8.00;;;5.40;;
16460;SDS011;8341;42.048;24.650;2023-06-26T10:23:36;7.93;;;6.15;;
16460;SDS011;8341;42.048;24.650;2023-06-26T10:26:06;10.00;;;5.68;;
16460;SDS011;8341;42.048;24.650;2023-06-26T10:28:35;7.38;;;6.28;;
16460;SDS011;8341;42.048;24.650;2023-06-26T10:31:04;8.52;;;6.95;;
16460;SDS011;8341;42.048;24.650;2023-06-26T10:33:34;7.15;;;6.45;;
16460;SDS011;8341;42.048;24.650;2023-06-26T10:36:15;7.85;;;6.60;;
16460;SDS011;8341;42.048;24.650;2023-06-26T10:38:50;7.78;;;6.30;;
16460;SDS011;8341;42.048;24.650;2023-06-26T10:41:21;10.25;;;6.65;;
16460;SDS011;8341;42.048;24.650;2023-06-26T10:43:49;6.45;;;5.85;;
16460;SDS011;8341;42.048;24.650;2023-06-26T10:46:20;9.40;;;6.90;;
16460;SDS011;8341;42.048;24.650;2023-06-26T10:48:57;7.95;;;6.80;;
16460;SDS011;8341;42.048;24.650;2023-06-26T10:51:26;8.52;;;6.88;;
16460;SDS011;8341;42.048;24.650;2023-06-26T10:53:54;9.57;;;7.18;;
16460;SDS011;8341;42.048;24.650;2023-06-26T10:56:21;8.98;;;7.00;;
16460;SDS011;8341;42.048;24.650;2023-06-26T10:59:11;9.52;;;7.70;;
16460;SDS011;8341;42.048;24.650;2023-06-26T11:01:41;9.95;;;7.72;;
16460;SDS011;8341;42.048;24.650;2023-06-26T11:04:09;9.18;;;7.03;;
16460;SDS011;8341;42.048;24.650;2023-06-26T11:06:38;8.52;;;7.28;;
16460;SDS011;8341;42.048;24.650;2023-06-26T11:09:09;7.93;;;7.13;;
16460;SDS011;8341;42.048;24.650;2023-06-26T11:11:55;10.35;;;7.15;;
16460;SDS011;8341;42.048;24.650;2023-06-26T11:14:31;8.80;;;7.03;;
16460;SDS011;8341;42.048;24.650;2023-06-26T11:16:58;9.70;;;7.00;;
16460;SDS011;8341;42.048;24.650;2023-06-26T11:19:28;7.57;;;6.80;;
16460;SDS011;8341;42.048;24.650;2023-06-26T11:24:41;7.15;;;6.40;;
16460;SDS011;8341;42.048;24.650;2023-06-26T11:27:10;7.43;;;5.93;;
16460;SDS011;8341;42.048;24.650;2023-06-26T11:29:36;7.28;;;6.53;;
16460;SDS011;8341;42.048;24.650;2023-06-26T11:32:04;7.30;;;6.57;;
16460;SDS011;8341;42.048;24.650;2023-06-26T11:34:32;7.85;;;6.07;;
16460;SDS011;8341;42.048;24.650;2023-06-26T11:37:00;8.55;;;6.65;;
16460;SDS011;8341;42.048;24.650;2023-06-26T11:39:31;10.00;;;6.15;;
16460;SDS011;8341;42.048;24.650;2023-06-26T11:41:59;6.50;;;5.38;;
16460;SDS011;8341;42.048;24.650;2023-06-26T11:44:28;7.55;;;5.55;;
16460;SDS011;8341;42.048;24.650;2023-06-26T11:46:56;6.88;;;5.78;;
16460;SDS011;8341;42.048;24.650;2023-06-26T11:49:24;6.95;;;5.38;;
16460;SDS011;8341;42.048;24.650;2023-06-26T11:51:52;6.15;;;5.55;;
16460;SDS011;8341;42.048;24.650;2023-06-26T11:54:24;5.82;;;5.10;;
16460;SDS011;8341;42.048;24.650;2023-06-26T11:56:54;8.85;;;5.28;;
16460;SDS011;8341;42.048;24.650;2023-06-26T11:59:23;6.97;;;5.20;;
16460;SDS011;8341;42.048;24.650;2023-06-26T12:01:50;7.57;;;5.22;;
16460;SDS011;8341;42.048;24.650;2023-06-26T12:04:18;7.80;;;5.68;;
16460;SDS011;8341;42.048;24.650;2023-06-26T12:06:46;6.05;;;4.75;;
16460;SDS011;8341;42.048;24.650;2023-06-26T12:09:14;7.70;;;5.25;;
16460;SDS011;8341;42.048;24.650;2023-06-26T12:11:44;6.20;;;4.85;;
16460;SDS011;8341;42.048;24.650;2023-06-26T12:14:15;7.18;;;5.03;;
16460;SDS011;8341;42.048;24.650;2023-06-26T12:16:43;7.60;;;5.53;;
16460;SDS011;8341;42.048;24.650;2023-06-26T12:19:10;7.95;;;5.45;;
16460;SDS011;8341;42.048;24.650;2023-06-26T12:21:45;8.00;;;5.05;;
16460;SDS011;8341;42.048;24.650;2023-06-26T12:24:18;5.90;;;4.95;;
16460;SDS011;8341;42.048;24.650;2023-06-26T12:26:46;5.85;;;5.03;;
16460;SDS011;8341;42.048;24.650;2023-06-26T12:29:17;6.93;;;5.15;;
16460;SDS011;8341;42.048;24.650;2023-06-26T12:31:45;7.07;;;5.57;;
16460;SDS011;8341;42.048;24.650;2023-06-26T12:34:15;8.45;;;5.47;;
16460;SDS011;8341;42.048;24.650;2023-06-26T12:36:44;5.85;;;5.25;;
16460;SDS011;8341;42.048;24.650;2023-06-26T12:39:15;5.45;;;4.78;;
16460;SDS011;8341;42.048;24.650;2023-06-26T12:41:46;11.30;;;5.93;;
16460;SDS011;8341;42.048;24.650;2023-06-26T12:44:18;5.93;;;4.90;;
16460;SDS011;8341;42.048;24.650;2023-06-26T12:46:46;6.57;;;4.93;;
16460;SDS011;8341;42.048;24.650;2023-06-26T12:49:14;6.13;;;4.97;;
16460;SDS011;8341;42.048;24.650;2023-06-26T12:51:41;5.55;;;5.03;;
16460;SDS011;8341;42.048;24.650;2023-06-26T12:54:09;5.63;;;5.10;;
16460;SDS011;8341;42.048;24.650;2023-06-26T12:56:36;5.85;;;5.25;;
16460;SDS011;8341;42.048;24.650;2023-06-26T12:59:02;7.07;;;5.00;;
16460;SDS011;8341;42.048;24.650;2023-06-26T13:01:31;5.72;;;5.15;;
16460;SDS011;8341;42.048;24.650;2023-06-26T13:03:57;5.20;;;4.57;;
16460;SDS011;8341;42.048;24.650;2023-06-26T13:06:24;5.55;;;4.68;;
16460;SDS011;8341;42.048;24.650;2023-06-26T13:08:51;5.28;;;4.05;;
16460;SDS011;8341;42.048;24.650;2023-06-26T13:11:18;4.93;;;4.43;;
16460;SDS011;8341;42.048;24.650;2023-06-26T13:13:46;5.50;;;4.95;;
16460;SDS011;8341;42.048;24.650;2023-06-26T13:16:13;7.63;;;5.07;;
16460;SDS011;8341;42.048;24.650;2023-06-26T13:18:42;4.88;;;4.47;;
16460;SDS011;8341;42.048;24.650;2023-06-26T13:21:09;6.13;;;5.20;;
16460;SDS011;8341;42.048;24.650;2023-06-26T13:23:36;5.97;;;4.80;;
16460;SDS011;8341;42.048;24.650;2023-06-26T13:26:02;6.63;;;4.80;;
16460;SDS011;8341;42.048;24.650;2023-06-26T13:28:29;7.07;;;4.68;;
16460;SDS011;8341;42.048;24.650;2023-06-26T13:30:56;6.10;;;5.20;;
16460;SDS011;8341;42.048;24.650;2023-06-26T13:33:23;6.18;;;4.60;;
16460;SDS011;8341;42.048;24.650;2023-06-26T13:35:52;5.75;;;4.70;;
16460;SDS011;8341;42.048;24.650;2023-06-26T13:38:19;8.40;;;5.65;;
16460;SDS011;8341;42.048;24.650;2023-06-26T13:40:49;7.20;;;6.20;;
16460;SDS011;8341;42.048;24.650;2023-06-26T13:43:16;7.25;;;5.72;;
16460;SDS011;8341;42.048;24.650;2023-06-26T13:45:43;8.02;;;5.97;;
16460;SDS011;8341;42.048;24.650;2023-06-26T13:48:09;7.45;;;5.88;;
16460;SDS011;8341;42.048;24.650;2023-06-26T13:50:36;6.43;;;5.78;;
16460;SDS011;8341;42.048;24.650;2023-06-26T13:53:04;7.35;;;5.88;;
16460;SDS011;8341;42.048;24.650;2023-06-26T13:55:32;7.18;;;5.47;;
16460;SDS011;8341;42.048;24.650;2023-06-26T13:58:00;6.57;;;5.97;;
16460;SDS011;8341;42.048;24.650;2023-06-26T14:00:29;10.07;;;8.38;;
16460;SDS011;8341;42.048;24.650;2023-06-26T14:02:56;6.85;;;5.90;;
16460;SDS011;8341;42.048;24.650;2023-06-26T14:05:22;6.32;;;5.72;;
16460;SDS011;8341;42.048;24.650;2023-06-26T14:07:49;7.35;;;5.90;;
16460;SDS011;8341;42.048;24.650;2023-06-26T14:10:17;5.43;;;4.93;;
16460;SDS011;8341;42.048;24.650;2023-06-26T14:12:44;6.88;;;6.18;;
16460;SDS011;8341;42.048;24.650;2023-06-26T14:15:11;6.65;;;5.53;;
16460;SDS011;8341;42.048;24.650;2023-06-26T14:17:38;6.47;;;5.70;;
16460;SDS011;8341;42.048;24.650;2023-06-26T14:20:05;6.15;;;5.22;;
16460;SDS011;8341;42.048;24.650;2023-06-26T14:22:35;7.30;;;5.30;;
16460;SDS011;8341;42.048;24.650;2023-06-26T14:25:01;6.60;;;5.90;;
16460;SDS011;8341;42.048;24.650;2023-06-26T14:27:30;6.25;;;5.47;;
16460;SDS011;8341;42.048;24.650;2023-06-26T14:29:56;5.75;;;5.22;;
16460;SDS011;8341;42.048;24.650;2023-06-26T14:32:23;6.75;;;6.00;;
16460;SDS011;8341;42.048;24.650;2023-06-26T14:34:50;8.82;;;6.43;;
16460;SDS011;8341;42.048;24.650;2023-06-26T14:37:17;6.70;;;6.07;;
16460;SDS011;8341;42.048;24.650;2023-06-26T14:39:44;7.13;;;5.63;;
16460;SDS011;8341;42.048;24.650;2023-06-26T14:42:11;7.50;;;6.05;;
16460;SDS011;8341;42.048;24.650;2023-06-26T14:44:39;5.85;;;5.28;;